createdAt,value
2023-02-12T00:00:02.758Z,103499.69
2023-02-12T00:02:30.152Z,103504.34
2023-02-12T00:04:56.594Z,103505.59
2023-02-12T00:07:22.974Z,103511.75
2023-02-12T00:09:49.463Z,103511.41
2023-02-12T00:12:16.595Z,103508.44
2023-02-12T00:14:43.193Z,103518.09
2023-02-12T00:17:09.581Z,103521.56
2023-02-12T00:19:36.006Z,103517.09
2023-02-12T00:22:02.341Z,103528.00
2023-02-12T00:24:28.776Z,103522.09
2023-02-12T00:26:55.653Z,103535.72
2023-02-12T00:29:22.070Z,103538.19
2023-02-12T00:31:48.522Z,103534.03
2023-02-12T00:34:14.999Z,103531.34
2023-02-12T00:36:41.448Z,103531.59
2023-02-12T00:39:07.821Z,103533.38
2023-02-12T00:41:34.155Z,103538.53
2023-02-12T00:44:00.548Z,103544.44
2023-02-12T00:46:27.067Z,103534.97
2023-02-12T00:48:53.582Z,103546.88
2023-02-12T00:51:19.984Z,103551.66
2023-02-12T00:53:46.383Z,103549.91
2023-02-12T00:56:12.791Z,103546.06
2023-02-12T00:58:39.191Z,103541.78
2023-02-12T01:01:05.615Z,103548.63
2023-02-12T01:03:32.111Z,103547.75
2023-02-12T01:05:58.757Z,103552.47
2023-02-12T01:08:25.558Z,103555.69
2023-02-12T01:10:59.998Z,103558.13
2023-02-12T01:13:27.421Z,103555.44
2023-02-12T01:16:21.184Z,103559.53
2023-02-12T01:18:48.209Z,103564.19
2023-02-12T01:21:17.882Z,103571.66
2023-02-12T01:23:45.110Z,103577.22
2023-02-12T01:26:15.151Z,103571.19
2023-02-12T01:28:44.129Z,103571.19
2023-02-12T01:31:16.506Z,103558.72
2023-02-12T01:33:43.688Z,103567.72
2023-02-12T01:36:11.072Z,103564.00
2023-02-12T01:38:37.452Z,103570.94
2023-02-12T01:41:08.577Z,103571.44
2023-02-12T01:43:36.335Z,103575.44
2023-02-12T01:46:03.310Z,103568.50
2023-02-12T01:48:34.214Z,103556.66
2023-02-12T01:51:03.772Z,103569.63
2023-02-12T01:53:34.720Z,103563.19
2023-02-12T01:56:02.593Z,103571.66
2023-02-12T01:58:35.337Z,103565.28
2023-02-12T02:01:04.819Z,103557.69
2023-02-12T02:03:31.425Z,103561.69
2023-02-12T02:06:04.438Z,103570.03
2023-02-12T02:08:30.933Z,103554.88
2023-02-12T02:10:57.367Z,103564.66
2023-02-12T02:13:42.202Z,103559.16
2023-02-12T02:16:19.179Z,103567.22
2023-02-12T02:18:54.926Z,103564.66
2023-02-12T02:21:33.870Z,103563.34
2023-02-12T02:24:31.552Z,103569.91
2023-02-12T02:27:21.110Z,103563.34
2023-02-12T02:30:12.975Z,103558.88
2023-02-12T02:32:46.904Z,103558.22
2023-02-12T02:35:27.882Z,103565.31
2023-02-12T02:38:18.318Z,103567.88
2023-02-12T02:41:09.302Z,103568.25
2023-02-12T02:43:41.970Z,103564.50
2023-02-12T02:46:14.044Z,103567.19
2023-02-12T02:48:46.330Z,103573.22
2023-02-12T02:51:18.085Z,103571.31
2023-02-12T02:53:50.904Z,103572.31
2023-02-12T02:56:21.254Z,103576.31
2023-02-12T02:58:56.858Z,103577.22
2023-02-12T03:01:29.713Z,103570.31
2023-02-12T03:03:55.974Z,103580.69
2023-02-12T03:06:45.139Z,103576.69
2023-02-12T03:09:26.887Z,103572.31
2023-02-12T03:11:57.418Z,103573.22
2023-02-12T03:14:29.698Z,103576.56
2023-02-12T03:17:18.592Z,103579.25
2023-02-12T03:19:50.834Z,103580.16
2023-02-12T03:22:23.220Z,103586.44
2023-02-12T03:25:04.623Z,103582.59
2023-02-12T03:27:38.985Z,103574.38
2023-02-12T03:30:06.910Z,103580.38
2023-02-12T03:32:58.479Z,103569.47
2023-02-12T03:35:33.709Z,103570.25
2023-02-12T03:38:16.693Z,103574.47
2023-02-12T03:41:06.708Z,103571.03
2023-02-12T03:43:37.100Z,103577.19
2023-02-12T03:46:47.037Z,103590.25
2023-02-12T03:49:20.010Z,103584.25
2023-02-12T03:51:46.402Z,103593.63
2023-02-12T03:54:16.657Z,103598.88
2023-02-12T03:56:55.372Z,103599.66
2023-02-12T03:59:23.786Z,103597.09
2023-02-12T04:01:52.783Z,103604.16
2023-02-12T04:04:20.283Z,103609.78
2023-02-12T04:06:49.133Z,103611.31
2023-02-12T04:09:16.608Z,103609.78
2023-02-12T04:12:11.709Z,103606.31
2023-02-12T04:14:54.351Z,103594.13
2023-02-12T04:17:46.659Z,103604.41
2023-02-12T04:20:39.207Z,103596.81
2023-02-12T04:23:20.617Z,103609.53
2023-02-12T04:26:15.252Z,103610.41
2023-02-12T04:28:51.862Z,103615.56
2023-02-12T04:31:26.044Z,103613.88
2023-02-12T04:34:03.861Z,103619.81
2023-02-12T04:36:35.422Z,103627.75
2023-02-12T04:39:06.759Z,103627.88
2023-02-12T04:41:33.389Z,103624.94
2023-02-12T04:44:13.811Z,103623.91
2023-02-12T04:46:40.164Z,103618.00
2023-02-12T04:49:06.948Z,103613.88
2023-02-12T04:51:33.293Z,103614.03
2023-02-12T04:53:59.682Z,103610.19
2023-02-12T04:56:26.032Z,103616.06
2023-02-12T04:58:53.688Z,103618.53
2023-02-12T05:01:20.044Z,103610.94
2023-02-12T05:03:46.436Z,103612.63
2023-02-12T05:06:12.926Z,103613.75
2023-02-12T05:08:39.287Z,103609.53
2023-02-12T05:11:08.094Z,103613.88
2023-02-12T05:13:35.057Z,103619.69
2023-02-12T05:16:05.257Z,103619.81
2023-02-12T05:18:32.274Z,103626.47
2023-02-12T05:21:00.200Z,103625.19
2023-02-12T05:23:31.641Z,103624.94
2023-02-12T05:25:59.448Z,103626.72
2023-02-12T05:28:26.066Z,103624.94
2023-02-12T05:30:52.869Z,103631.75
2023-02-12T05:33:19.321Z,103631.84
2023-02-12T05:35:45.695Z,103631.63
2023-02-12T05:38:12.026Z,103633.19
2023-02-12T05:40:40.402Z,103621.47
2023-02-12T05:43:06.747Z,103628.53
2023-02-12T05:45:33.436Z,103638.69
2023-02-12T05:47:59.817Z,103634.59
2023-02-12T05:50:26.220Z,103638.16
2023-02-12T05:52:52.813Z,103642.66
2023-02-12T05:55:19.155Z,103641.63
2023-02-12T05:57:45.725Z,103636.13
2023-02-12T06:00:12.589Z,103640.50
2023-02-12T06:02:39.122Z,103637.81
2023-02-12T06:05:05.902Z,103641.13
2023-02-12T06:07:32.439Z,103641.13
2023-02-12T06:09:59.324Z,103636.88
2023-02-12T06:12:25.813Z,103638.56
2023-02-12T06:14:52.169Z,103643.69
2023-02-12T06:17:18.653Z,103646.41
2023-02-12T06:19:44.999Z,103637.91
2023-02-12T06:22:11.542Z,103642.66
2023-02-12T06:24:37.892Z,103646.75
2023-02-12T06:27:04.519Z,103653.47
2023-02-12T06:29:30.913Z,103650.91
2023-02-12T06:31:57.559Z,103653.34
2023-02-12T06:34:24.012Z,103653.09
2023-02-12T06:36:50.654Z,103645.50
2023-02-12T06:39:17.849Z,103649.09
2023-02-12T06:41:44.685Z,103650.91
2023-02-12T06:44:12.730Z,103657.84
2023-02-12T06:46:39.443Z,103659.59
2023-02-12T06:49:05.962Z,103662.31
2023-02-12T06:51:32.485Z,103671.31
2023-02-12T06:53:59.208Z,103676.59
2023-02-12T06:56:26.968Z,103681.59
2023-02-12T06:58:56.070Z,103680.69
2023-02-12T07:01:25.737Z,103687.63
2023-02-12T07:03:55.134Z,103684.31
2023-02-12T07:06:22.647Z,103689.56
2023-02-12T07:08:49.762Z,103698.03
2023-02-12T07:11:16.980Z,103691.13
2023-02-12T07:13:44.877Z,103692.00
2023-02-12T07:16:13.803Z,103695.72
2023-02-12T07:18:40.680Z,103694.06
2023-02-12T07:21:08.186Z,103703.66
2023-02-12T07:23:35.503Z,103702.78
2023-02-12T07:26:07.166Z,103709.47
2023-02-12T07:28:34.639Z,103714.63
2023-02-12T07:31:08.331Z,103721.78
2023-02-12T07:33:36.067Z,103719.09
2023-02-12T07:36:04.018Z,103726.28
2023-02-12T07:38:30.428Z,103713.03
2023-02-12T07:41:09.432Z,103714.59
2023-02-12T07:43:36.858Z,103717.16
2023-02-12T07:46:11.601Z,103719.97
2023-02-12T07:48:38.234Z,103723.56
2023-02-12T07:51:09.649Z,103723.03
2023-02-12T07:53:36.735Z,103727.03
2023-02-12T07:56:14.657Z,103730.00
2023-02-12T07:58:42.414Z,103729.31
2023-02-12T08:01:26.911Z,103730.22
2023-02-12T08:03:53.934Z,103723.53
2023-02-12T08:06:23.176Z,103719.28
2023-02-12T08:08:54.537Z,103722.91
2023-02-12T08:11:21.756Z,103726.63
2023-02-12T08:13:48.846Z,103724.06
2023-02-12T08:16:21.318Z,103725.63
2023-02-12T08:18:48.692Z,103724.06
2023-02-12T08:21:20.677Z,103732.94
2023-02-12T08:23:50.975Z,103730.19
2023-02-12T08:26:28.760Z,103735.34
2023-02-12T08:29:02.255Z,103733.53
2023-02-12T08:31:31.682Z,103736.88
2023-02-12T08:33:59.438Z,103745.88
2023-02-12T08:36:28.494Z,103739.19
2023-02-12T08:38:58.840Z,103743.47
2023-02-12T08:41:28.180Z,103745.22
2023-02-12T08:43:57.437Z,103741.13
2023-02-12T08:46:29.851Z,103744.47
2023-02-12T08:48:59.425Z,103751.41
2023-02-12T08:51:28.706Z,103751.41
2023-02-12T08:53:57.749Z,103754.75
2023-02-12T08:56:26.555Z,103764.41
2023-02-12T08:58:52.948Z,103762.47
2023-02-12T09:01:22.765Z,103764.41
2023-02-12T09:03:50.435Z,103774.03
2023-02-12T09:06:18.227Z,103766.44
2023-02-12T09:08:45.327Z,103769.78
2023-02-12T09:11:16.431Z,103771.59
2023-02-12T09:13:44.518Z,103770.91
2023-02-12T09:16:11.011Z,103773.38
2023-02-12T09:18:38.166Z,103767.34
2023-02-12T09:21:14.115Z,103773.38
2023-02-12T09:23:40.805Z,103771.84
2023-02-12T09:26:09.444Z,103774.78
2023-02-12T09:28:36.668Z,103773.69
2023-02-12T09:31:08.573Z,103769.09
2023-02-12T09:33:35.405Z,103776.13
2023-02-12T09:36:14.319Z,103781.53
2023-02-12T09:38:41.576Z,103772.81
2023-02-12T09:41:49.460Z,103790.28
2023-02-12T09:44:32.609Z,103796.28
2023-02-12T09:47:03.699Z,103795.91
2023-02-12T09:50:00.607Z,103792.09
2023-02-12T09:52:28.896Z,103796.06
2023-02-12T09:54:56.555Z,103792.63
2023-02-12T09:57:34.629Z,103794.66
2023-02-12T10:00:15.777Z,103797.72
2023-02-12T10:02:42.191Z,103803.13
2023-02-12T10:05:19.075Z,103801.66
2023-02-12T10:07:51.364Z,103808.75
2023-02-12T10:10:39.786Z,103816.34
2023-02-12T10:13:22.395Z,103815.94
2023-02-12T10:16:22.226Z,103810.66
2023-02-12T10:19:03.511Z,103815.34
2023-02-12T10:21:48.750Z,103813.66
2023-02-12T10:24:34.679Z,103811.59
2023-02-12T10:27:09.474Z,103814.53
2023-02-12T10:29:39.931Z,103808.38
2023-02-12T10:32:27.671Z,103812.09
2023-02-12T10:34:56.846Z,103803.59
2023-02-12T10:37:58.091Z,103801.78
2023-02-12T10:40:32.753Z,103804.38
2023-02-12T10:43:00.778Z,103802.06
2023-02-12T10:45:34.370Z,103797.78
2023-02-12T10:48:25.334Z,103796.53
2023-02-12T10:51:21.985Z,103802.81
2023-02-12T10:53:49.389Z,103798.44
2023-02-12T10:56:20.065Z,103794.06
2023-02-12T10:58:56.902Z,103797.44
2023-02-12T11:01:35.176Z,103796.00
2023-02-12T11:04:24.196Z,103798.94
2023-02-12T11:07:07.213Z,103807.19
2023-02-12T11:09:45.190Z,103797.69
2023-02-12T11:12:31.843Z,103791.97
2023-02-12T11:15:19.961Z,103787.50
2023-02-12T11:18:04.543Z,103785.94
2023-02-12T11:20:41.284Z,103784.53
2023-02-12T11:23:27.593Z,103782.19
2023-02-12T11:26:07.501Z,103783.19
2023-02-12T11:28:36.396Z,103778.81
2023-02-12T11:31:20.511Z,103766.06
2023-02-12T11:33:46.870Z,103771.56
2023-02-12T11:36:35.850Z,103775.94
2023-02-12T11:39:03.012Z,103771.84
2023-02-12T11:41:36.260Z,103770.16
2023-02-12T11:44:09.549Z,103766.13
2023-02-12T11:46:36.225Z,103765.22
2023-02-12T11:49:02.762Z,103766.69
2023-02-12T11:51:31.422Z,103775.28
2023-02-12T11:54:02.787Z,103770.38
2023-02-12T11:56:43.461Z,103770.91
2023-02-12T11:59:20.622Z,103766.56
2023-02-12T12:01:49.282Z,103762.53
2023-02-12T12:04:20.345Z,103762.19
2023-02-12T12:06:52.724Z,103763.59
2023-02-12T12:09:29.149Z,103764.41
2023-02-12T12:11:58.439Z,103766.97
2023-02-12T12:14:29.497Z,103759.13
2023-02-12T12:17:29.606Z,103758.22
2023-02-12T12:20:02.398Z,103757.22
2023-02-12T12:23:05.846Z,103760.31
2023-02-12T12:25:44.455Z,103759.78
2023-02-12T12:28:31.819Z,103758.22
2023-02-12T12:31:14.822Z,103754.53
2023-02-12T12:33:48.937Z,103757.22
2023-02-12T12:36:34.221Z,103754.22
2023-02-12T12:39:18.422Z,103743.50
2023-02-12T12:42:02.013Z,103742.19
2023-02-12T12:44:50.302Z,103746.25
2023-02-12T12:47:31.773Z,103736.06
2023-02-12T12:50:07.275Z,103730.22
2023-02-12T12:53:05.958Z,103727.13
2023-02-12T12:55:57.742Z,103727.56
2023-02-12T12:58:50.161Z,103723.22
2023-02-12T13:01:25.532Z,103720.31
2023-02-12T13:04:07.858Z,103722.75
2023-02-12T13:07:12.652Z,103719.59
2023-02-12T13:09:54.243Z,103717.00
2023-02-12T13:12:38.754Z,103722.56
2023-02-12T13:15:33.362Z,103706.13
2023-02-12T13:18:35.417Z,103718.53
2023-02-12T13:21:26.422Z,103711.34
2023-02-12T13:24:03.317Z,103716.44
2023-02-12T13:26:37.443Z,103709.59
2023-02-12T13:29:16.994Z,103705.47
2023-02-12T13:32:21.903Z,103710.09
2023-02-12T13:34:48.944Z,103698.88
2023-02-12T13:37:20.402Z,103701.97
2023-02-12T13:39:49.242Z,103700.31
2023-02-12T13:42:35.802Z,103703.25
2023-02-12T13:45:21.564Z,103708.94
2023-02-12T13:47:53.565Z,103704.81
2023-02-12T13:50:31.804Z,103712.16
2023-02-12T13:53:20.082Z,103707.94
2023-02-12T13:55:46.422Z,103711.03
2023-02-12T13:58:31.337Z,103703.31
2023-02-12T14:01:00.902Z,103697.16
2023-02-12T14:03:29.952Z,103702.06
2023-02-12T14:06:17.804Z,103709.13
2023-02-12T14:08:47.964Z,103700.69
2023-02-12T14:11:17.767Z,103700.06
2023-02-12T14:13:58.069Z,103693.69
2023-02-12T14:16:30.171Z,103698.94
2023-02-12T14:19:34.273Z,103702.56
2023-02-12T14:22:01.802Z,103702.84
2023-02-12T14:24:37.186Z,103704.50
2023-02-12T14:27:36.210Z,103707.88
2023-02-12T14:30:11.882Z,103705.19
2023-02-12T14:32:50.668Z,103702.06
2023-02-12T14:35:41.382Z,103700.09
2023-02-12T14:38:16.822Z,103699.63
2023-02-12T14:40:46.905Z,103700.50
2023-02-12T14:44:01.312Z,103704.56
2023-02-12T14:46:27.728Z,103695.72
2023-02-12T14:49:04.775Z,103719.41
2023-02-12T14:51:42.703Z,103699.63
2023-02-12T14:54:31.314Z,103702.66
2023-02-12T14:57:01.616Z,103699.41
2023-02-12T14:59:33.935Z,103699.19
2023-02-12T15:02:03.633Z,103698.88
2023-02-12T15:04:38.007Z,103705.72
2023-02-12T15:07:12.968Z,103707.50
2023-02-12T15:09:51.634Z,103699.66
2023-02-12T15:12:31.221Z,103708.75
2023-02-12T15:15:25.377Z,103705.81
2023-02-12T15:17:59.988Z,103711.50
2023-02-12T15:20:44.729Z,103712.28
2023-02-12T15:23:40.326Z,103711.28
2023-02-12T15:26:13.592Z,103709.72
2023-02-12T15:28:41.187Z,103713.31
2023-02-12T15:31:10.897Z,103707.41
2023-02-12T15:33:44.822Z,103716.44
2023-02-12T15:36:17.647Z,103715.78
2023-02-12T15:38:45.699Z,103711.63
2023-02-12T15:41:26.614Z,103708.94
2023-02-12T15:43:53.465Z,103709.97
2023-02-12T15:46:21.002Z,103712.66
2023-02-12T15:48:47.406Z,103703.25
2023-02-12T15:51:13.738Z,103716.47
2023-02-12T15:53:41.540Z,103721.63
2023-02-12T15:56:14.800Z,103717.34
2023-02-12T15:58:50.522Z,103714.66
2023-02-12T16:01:19.988Z,103717.00
2023-02-12T16:03:50.787Z,103715.69
2023-02-12T16:06:18.576Z,103717.72
2023-02-12T16:08:54.615Z,103720.63
2023-02-12T16:11:23.278Z,103722.50
2023-02-12T16:13:55.524Z,103729.88
2023-02-12T16:16:25.586Z,103733.25
2023-02-12T16:19:15.737Z,103729.88
2023-02-12T16:21:42.158Z,103739.28
2023-02-12T16:24:31.044Z,103737.50
2023-02-12T16:27:08.238Z,103738.28
2023-02-12T16:29:38.814Z,103739.84
2023-02-12T16:32:05.214Z,103742.41
2023-02-12T16:34:38.015Z,103739.59
2023-02-12T16:37:36.124Z,103745.63
2023-02-12T16:40:15.432Z,103750.91
2023-02-12T16:42:47.661Z,103754.41
2023-02-12T16:45:32.484Z,103753.59
2023-02-12T16:48:09.053Z,103761.78
2023-02-12T16:50:39.387Z,103758.75
2023-02-12T16:53:08.177Z,103758.50
2023-02-12T16:55:36.570Z,103759.19
2023-02-12T16:58:02.933Z,103765.66
2023-02-12T17:00:29.301Z,103759.50
2023-02-12T17:02:56.564Z,103764.53
2023-02-12T17:05:23.325Z,103766.63
2023-02-12T17:07:50.301Z,103773.44
2023-02-12T17:10:17.302Z,103768.03
2023-02-12T17:12:51.590Z,103755.28
2023-02-12T17:15:25.695Z,103766.50
2023-02-12T17:17:52.044Z,103762.78
2023-02-12T17:20:18.657Z,103775.63
2023-02-12T17:22:50.724Z,103771.16
2023-02-12T17:25:17.363Z,103768.69
2023-02-12T17:27:43.834Z,103756.84
2023-02-12T17:30:15.107Z,103768.16
2023-02-12T17:32:41.595Z,103756.31
2023-02-12T17:35:08.366Z,103777.44
2023-02-12T17:37:34.705Z,103772.06
2023-02-12T17:40:01.616Z,103774.50
2023-02-12T17:42:28.012Z,103781.19
2023-02-12T17:44:54.484Z,103778.50
2023-02-12T17:47:20.858Z,103783.00
2023-02-12T17:49:47.460Z,103779.66
2023-02-12T17:52:13.803Z,103781.75
2023-02-12T17:54:40.322Z,103782.53
2023-02-12T17:57:06.727Z,103782.53
2023-02-12T17:59:33.138Z,103783.16
2023-02-12T18:02:00.391Z,103777.78
2023-02-12T18:04:27.119Z,103785.16
2023-02-12T18:06:53.459Z,103781.13
2023-02-12T18:09:19.827Z,103778.91
2023-02-12T18:11:46.168Z,103779.59
2023-02-12T18:14:12.542Z,103781.25
2023-02-12T18:16:38.902Z,103782.03
2023-02-12T18:19:06.230Z,103786.94
2023-02-12T18:21:34.855Z,103781.13
2023-02-12T18:24:01.535Z,103786.28
2023-02-12T18:26:27.894Z,103790.78
2023-02-12T18:28:56.285Z,103791.53
2023-02-12T18:31:22.695Z,103799.00
2023-02-12T18:33:49.156Z,103790.53
2023-02-12T18:36:17.644Z,103797.59
2023-02-12T18:38:45.910Z,103796.69
2023-02-12T18:41:16.899Z,103799.81
2023-02-12T18:43:44.091Z,103805.72
2023-02-12T18:46:13.925Z,103802.38
2023-02-12T18:48:40.887Z,103803.16
2023-02-12T18:51:09.062Z,103800.47
2023-02-12T18:53:35.544Z,103798.91
2023-02-12T18:56:06.252Z,103809.31
2023-02-12T18:58:33.108Z,103805.97
2023-02-12T19:01:00.093Z,103805.59
2023-02-12T19:03:27.388Z,103802.13
2023-02-12T19:05:54.066Z,103801.22
2023-02-12T19:08:20.437Z,103804.84
2023-02-12T19:10:49.400Z,103797.75
2023-02-12T19:13:15.972Z,103800.97
2023-02-12T19:15:42.329Z,103796.47
2023-02-12T19:18:08.698Z,103796.06
2023-02-12T19:20:35.038Z,103800.97
2023-02-12T19:23:01.464Z,103806.91
2023-02-12T19:25:27.829Z,103800.22
2023-02-12T19:27:54.207Z,103802.66
2023-02-12T19:30:20.537Z,103807.94
2023-02-12T19:32:47.040Z,103799.16
2023-02-12T19:35:13.402Z,103804.56
2023-02-12T19:37:39.813Z,103812.03
2023-02-12T19:40:06.881Z,103801.63
2023-02-12T19:42:33.838Z,103802.53
2023-02-12T19:45:00.168Z,103809.59
2023-02-12T19:47:26.925Z,103807.25
2023-02-12T19:49:53.864Z,103803.69
2023-02-12T19:52:20.245Z,103805.00
2023-02-12T19:54:46.595Z,103802.94
2023-02-12T19:57:13.618Z,103796.00
2023-02-12T19:59:40.981Z,103800.13
2023-02-12T20:02:07.456Z,103801.13
2023-02-12T20:04:34.026Z,103807.84
2023-02-12T20:07:00.533Z,103804.75
2023-02-12T20:09:26.941Z,103810.66
2023-02-12T20:11:53.892Z,103810.78
2023-02-12T20:14:22.492Z,103808.84
2023-02-12T20:16:50.179Z,103808.09
2023-02-12T20:19:27.328Z,103804.34
2023-02-12T20:21:55.954Z,103809.13
2023-02-12T20:24:24.412Z,103802.47
2023-02-12T20:26:51.435Z,103800.66
2023-02-12T20:29:17.868Z,103801.94
2023-02-12T20:31:45.097Z,103808.00
2023-02-12T20:34:15.596Z,103803.09
2023-02-12T20:36:46.083Z,103796.38
2023-02-12T20:39:15.320Z,103804.22
2023-02-12T20:41:42.513Z,103791.25
2023-02-12T20:44:12.841Z,103797.06
2023-02-12T20:46:39.474Z,103794.63
2023-02-12T20:49:06.916Z,103796.28
2023-02-12T20:51:33.848Z,103801.28
2023-02-12T20:54:01.983Z,103804.78
2023-02-12T20:56:31.318Z,103796.03
2023-02-12T20:58:58.669Z,103798.59
2023-02-12T21:01:32.703Z,103801.03
2023-02-12T21:04:03.230Z,103804.25
2023-02-12T21:06:29.811Z,103803.50
2023-02-12T21:08:56.299Z,103788.31
2023-02-12T21:11:24.932Z,103790.75
2023-02-12T21:13:59.260Z,103790.13
2023-02-12T21:16:36.539Z,103792.69
2023-02-12T21:19:03.483Z,103791.66
2023-02-12T21:21:33.096Z,103785.09
2023-02-12T21:24:00.957Z,103793.94
2023-02-12T21:26:29.633Z,103798.19
2023-02-12T21:28:57.771Z,103789.47
2023-02-12T21:31:26.556Z,103791.81
2023-02-12T21:33:54.502Z,103788.31
2023-02-12T21:36:26.913Z,103793.44
2023-02-12T21:38:54.658Z,103784.97
2023-02-12T21:41:23.570Z,103781.63
2023-02-12T21:43:57.219Z,103777.38
2023-02-12T21:46:24.403Z,103784.84
2023-02-12T21:48:51.158Z,103784.09
2023-02-12T21:51:24.819Z,103786.50
2023-02-12T21:53:54.067Z,103783.81
2023-02-12T21:56:21.117Z,103791.16
2023-02-12T21:58:48.477Z,103786.13
2023-02-12T22:01:19.030Z,103785.75
2023-02-12T22:03:45.593Z,103788.59
2023-02-12T22:06:14.190Z,103787.81
2023-02-12T22:08:40.695Z,103785.50
2023-02-12T22:11:09.550Z,103784.47
2023-02-12T22:13:36.388Z,103782.69
2023-02-12T22:16:35.821Z,103784.59
2023-02-12T22:19:03.629Z,103783.69
2023-02-12T22:21:32.524Z,103780.22
2023-02-12T22:24:01.915Z,103783.94
2023-02-12T22:26:29.958Z,103790.50
2023-02-12T22:28:59.836Z,103784.38
2023-02-12T22:31:31.585Z,103794.41
2023-02-12T22:34:01.244Z,103792.59
2023-02-12T22:36:28.381Z,103798.63
2023-02-12T22:38:57.444Z,103795.81
2023-02-12T22:41:23.819Z,103790.66
2023-02-12T22:43:50.210Z,103790.28
2023-02-12T22:46:16.993Z,103787.81
2023-02-12T22:48:43.651Z,103786.94
2023-02-12T22:51:13.185Z,103790.16
2023-02-12T22:53:39.623Z,103781.53
2023-02-12T22:56:07.598Z,103775.09
2023-02-12T22:58:34.175Z,103780.22
2023-02-12T23:01:08.946Z,103777.28
2023-02-12T23:03:37.597Z,103784.13
2023-02-12T23:06:06.220Z,103789.50
2023-02-12T23:08:33.269Z,103786.81
2023-02-12T23:10:59.851Z,103787.56
2023-02-12T23:13:29.940Z,103788.72
2023-02-12T23:15:57.681Z,103789.50
2023-02-12T23:18:24.380Z,103792.19
2023-02-12T23:20:51.798Z,103790.38
2023-02-12T23:23:19.260Z,103795.53
2023-02-12T23:25:45.625Z,103796.53
2023-02-12T23:28:12.106Z,103792.34
2023-02-12T23:30:38.650Z,103795.28
2023-02-12T23:33:05.068Z,103788.69
2023-02-12T23:35:31.705Z,103783.69
2023-02-12T23:37:58.069Z,103782.94
2023-02-12T23:40:24.450Z,103788.22
2023-02-12T23:42:51.177Z,103787.31
2023-02-12T23:45:17.572Z,103787.19
2023-02-12T23:47:43.942Z,103782.19
2023-02-12T23:50:10.465Z,103786.41
2023-02-12T23:52:36.957Z,103786.41
2023-02-12T23:55:03.800Z,103788.22
2023-02-12T23:57:30.249Z,103778.69
2023-02-12T23:59:56.586Z,103783.69
